Time;durP1;ratioP1;P1;durP2;ratioP2;P2;SDS_P1;SDS_P2;PMS_P1;PMS_P2;Temp;Humidity;BMP_temperature;BMP_pressure;BME280_temperature;BME280_humidity;BME280_pressure;Samples;Min_cycle;Max_cycle;Signal;HPM_P1;HPM_P2
2022/04/21 00:00:33;;;;;;;58.55;41.85;;;;;;;4.45;100.00;98618.38;2065669;28;20219;-73
2022/04/21 00:01:35;;;;;;;62.25;42.53;;;;;;;4.44;100.00;98622.88;2065142;28;20200;-72
2022/04/21 00:02:36;;;;;;;61.30;42.90;;;;;;;4.43;100.00;98618.66;2065501;28;20193;-72
2022/04/21 00:03:38;;;;;;;63.73;43.33;;;;;;;4.46;100.00;98623.41;2066096;28;20224;-72
2022/04/21 00:04:39;;;;;;;63.50;45.35;;;;;;;4.50;100.00;98621.00;2066061;28;20248;-72
2022/04/21 00:05:43;;;;;;;61.03;44.23;;;;;;;4.48;100.00;98620.47;2065404;28;20197;-73
2022/04/21 00:06:44;;;;;;;65.35;44.70;;;;;;;4.44;100.00;98614.16;2057040;28;20321;-73
2022/04/21 00:07:48;;;;;;;68.60;45.88;;;;;;;4.41;100.00;98623.38;2057364;28;20229;-72
2022/04/21 00:08:50;;;;;;;66.03;45.53;;;;;;;4.40;100.00;98616.53;2065739;28;20698;-73
2022/04/21 00:09:51;;;;;;;69.78;45.47;;;;;;;4.38;100.00;98618.66;2065084;28;20240;-73
2022/04/21 00:10:53;;;;;;;65.87;44.33;;;;;;;4.39;100.00;98616.78;2065490;28;20252;-73
2022/04/21 00:11:56;;;;;;;71.53;45.15;;;;;;;4.39;100.00;98624.72;2065601;28;20304;-72
2022/04/21 00:12:58;;;;;;;67.82;46.13;;;;;;;4.37;100.00;98617.06;2057205;28;20208;-73
2022/04/21 00:13:59;;;;;;;66.55;46.35;;;;;;;4.37;100.00;98617.06;2065546;28;20205;-73
2022/04/21 00:15:02;;;;;;;74.00;48.30;;;;;;;4.38;100.00;98617.84;2066177;28;20666;-72
2022/04/21 00:16:05;;;;;;;76.88;47.42;;;;;;;4.39;100.00;98625.50;2066016;28;20194;-73
2022/04/21 00:17:08;;;;;;;71.38;47.42;;;;;;;4.37;100.00;98625.00;2065301;28;20771;-73
2022/04/21 00:18:10;;;;;;;71.68;47.63;;;;;;;4.37;100.00;98621.56;2065320;28;20684;-73
2022/04/21 00:19:11;;;;;;;68.97;47.13;;;;;;;4.36;100.00;98620.78;2065450;28;20684;-72
2022/04/21 00:20:14;;;;;;;69.15;46.35;;;;;;;4.37;100.00;98616.28;2065954;28;20191;-73
2022/04/21 00:21:15;;;;;;;66.43;46.55;;;;;;;4.36;100.00;98623.41;2064715;28;20279;-73
2022/04/21 00:23:36;;;;;;;68.20;47.05;;;;;;;4.35;100.00;98619.19;2059820;28;20437;-73
2022/04/21 00:24:37;;;;;;;66.35;46.00;;;;;;;4.33;100.00;98613.34;2057291;28;20205;-73
2022/04/21 00:25:38;;;;;;;71.17;46.87;;;;;;;4.35;100.00;98623.69;2057308;28;20288;-73
2022/04/21 00:26:39;;;;;;;68.72;47.97;;;;;;;4.35;100.00;98615.75;2065377;28;20475;-72
2022/04/21 00:27:42;;;;;;;71.67;48.00;;;;;;;4.36;100.00;98625.25;2065285;28;20201;-73
2022/04/21 00:28:45;;;;;;;68.80;46.85;;;;;;;4.35;100.00;98621.03;2065553;28;20514;-73
2022/04/21 00:29:47;;;;;;;68.82;46.40;;;;;;;4.35;100.00;98624.47;2065259;28;20208;-73
2022/04/21 00:30:49;;;;;;;68.35;47.42;;;;;;;4.34;100.00;98624.72;2065118;28;20769;-72
2022/04/21 00:31:51;;;;;;;76.75;49.00;;;;;;;4.34;100.00;98624.72;2065343;28;20254;-73
2022/04/21 00:32:53;;;;;;;72.72;47.70;;;;;;;4.34;100.00;98617.59;2065452;28;20607;-72
2022/04/21 00:33:55;;;;;;;72.15;47.15;;;;;;;4.35;100.00;98623.69;2065956;28;20251;-73
2022/04/21 00:34:57;;;;;;;67.55;47.80;;;;;;;4.35;100.00;98624.47;2065863;28;20341;-73
2022/04/21 00:36:02;;;;;;;72.07;46.63;;;;;;;4.35;100.00;98631.59;2064551;28;20667;-72
2022/04/21 00:37:04;;;;;;;78.10;47.80;;;;;;;4.35;100.00;98628.97;2065684;28;20177;-72
2022/04/21 00:38:06;;;;;;;73.63;49.42;;;;;;;4.34;100.00;98628.16;2066031;28;20189;-72
2022/04/21 00:39:07;;;;;;;74.82;49.20;;;;;;;4.33;100.00;98620.50;2064948;28;20291;-73
2022/04/21 00:40:10;;;;;;;77.83;49.13;;;;;;;4.35;100.00;98634.25;2057161;28;20193;-72
2022/04/21 00:41:11;;;;;;;69.70;49.00;;;;;;;4.35;100.00;98632.41;2057455;28;20870;-73
2022/04/21 00:42:13;;;;;;;72.70;50.17;;;;;;;4.36;100.00;98636.63;2065343;28;20200;-72
2022/04/21 00:43:17;;;;;;;73.20;49.35;;;;;;;4.34;100.00;98628.16;2065356;28;20189;-72
2022/04/21 00:44:18;;;;;;;72.43;48.78;;;;;;;4.37;100.00;98632.91;2065912;28;20200;-72
2022/04/21 00:45:20;;;;;;;74.35;48.50;;;;;;;4.36;100.00;98636.63;2066189;28;20220;-73
2022/04/21 00:46:21;;;;;;;73.78;47.72;;;;;;;4.37;100.00;98635.56;2065773;28;20663;-73
2022/04/21 00:47:25;;;;;;;72.50;48.17;;;;;;;4.35;100.00;98635.03;2065878;28;20185;-73
2022/04/21 00:48:28;;;;;;;72.03;48.53;;;;;;;4.36;100.00;98631.34;2065874;28;20201;-73
2022/04/21 00:49:29;;;;;;;74.97;48.45;;;;;;;4.37;100.00;98634.75;2066063;28;20189;-73
2022/04/21 00:50:37;;;;;;;74.53;48.30;;;;;;;4.36;100.00;98635.81;2065832;28;20196;-73
2022/04/21 00:51:38;;;;;;;76.15;49.55;;;;;;;4.37;100.00;98635.56;2065664;28;20239;-73
2022/04/21 00:52:40;;;;;;;79.38;50.60;;;;;;;4.37;100.00;98632.13;2065199;28;20201;-73
2022/04/21 00:53:42;;;;;;;76.15;50.25;;;;;;;4.35;100.00;98628.97;2057185;28;20205;-73
2022/04/21 00:54:44;;;;;;;76.10;49.60;;;;;;;4.34;100.00;98633.44;2065202;28;20229;-73
2022/04/21 00:55:44;;;;;;;77.13;48.80;;;;;;;4.35;100.00;98635.03;2065203;28;20196;-73
2022/04/21 00:56:47;;;;;;;73.50;48.40;;;;;;;4.32;100.00;98632.91;2065481;28;20671;-73
2022/04/21 00:57:51;;;;;;;79.50;48.50;;;;;;;4.34;100.00;98638.72;2065282;28;20292;-73
2022/04/21 00:58:54;;;;;;;73.47;50.25;;;;;;;4.33;100.00;98634.50;2057658;28;20660;-73
2022/04/21 00:59:55;;;;;;;75.07;50.30;;;;;;;4.31;100.00;98633.19;2058401;28;20292;-73
2022/04/21 01:00:57;;;;;;;72.17;48.17;;;;;;;4.32;100.00;98635.56;2067168;28;20247;-73
2022/04/21 01:03:19;;;;;;;73.78;49.20;;;;;;;4.30;100.00;98635.03;2066929;28;20189;-73
2022/04/21 01:04:21;;;;;;;71.75;49.30;;;;;;;4.31;100.00;98638.47;2066894;28;20615;-73
2022/04/21 01:05:29;;;;;;;69.97;47.67;;;;;;;4.31;100.00;98641.09;2066011;28;20771;-73
2022/04/21 01:06:30;;;;;;;71.82;48.25;;;;;;;4.30;100.00;98637.66;2066726;28;20220;-74
2022/04/21 01:07:34;;;;;;;71.63;48.22;;;;;;;4.29;100.00;98640.59;2067480;28;20181;-73
2022/04/21 01:08:37;;;;;;;70.47;48.25;;;;;;;4.27;100.00;98632.13;2066737;28;20243;-73
2022/04/21 01:09:38;;;;;;;71.22;47.97;;;;;;;4.28;100.00;98633.72;2059080;28;20300;-74
2022/04/21 01:10:42;;;;;;;71.43;48.37;;;;;;;4.29;100.00;98640.59;2058400;28;20212;-73
2022/04/21 01:11:45;;;;;;;75.88;48.90;;;;;;;4.32;100.00;98642.69;2066993;28;20201;-73
2022/04/21 01:12:47;;;;;;;72.90;47.83;;;;;;;4.29;100.00;98630.81;2067614;28;20221;-73
2022/04/21 01:13:50;;;;;;;81.00;48.42;;;;;;;4.30;100.00;98634.25;2067390;28;20276;-73
2022/04/21 01:14:51;;;;;;;69.32;46.60;;;;;;;4.29;100.00;98636.09;2066645;28;20691;-73
2022/04/21 01:15:53;;;;;;;73.15;47.70;;;;;;;4.27;100.00;98632.94;2066869;28;20199;-73
2022/04/21 01:16:54;;;;;;;69.95;46.88;;;;;;;4.27;100.00;98637.41;2067383;28;20202;-73
2022/04/21 01:17:56;;;;;;;68.07;48.33;;;;;;;4.28;100.00;98634.50;2067384;28;20199;-73
2022/04/21 01:19:00;;;;;;;79.55;49.58;;;;;;;4.28;100.00;98639.78;2066671;28;20247;-72
2022/04/21 01:20:03;;;;;;;75.95;48.50;;;;;;;4.27;100.00;98634.78;2066634;28;20288;-73
2022/04/21 01:21:06;;;;;;;73.85;47.92;;;;;;;4.29;100.00;98649.28;2074198;28;20188;-73
2022/04/21 01:22:07;;;;;;;71.13;47.70;;;;;;;4.29;100.00;98641.38;2067468;28;20181;-74
2022/04/21 01:23:09;;;;;;;70.47;47.05;;;;;;;4.28;100.00;98634.50;2067530;28;20204;-73
2022/04/21 01:24:10;;;;;;;74.60;48.70;;;;;;;4.31;100.00;98647.16;2066596;28;20228;-73
2022/04/21 01:25:12;;;;;;;69.53;46.93;;;;;;;4.30;100.00;98637.66;2058782;28;20244;-73
2022/04/21 01:26:15;;;;;;;66.18;46.38;;;;;;;4.29;100.00;98644.00;2058586;28;20699;-73
2022/04/21 01:27:17;;;;;;;69.00;46.47;;;;;;;4.31;100.00;98639.25;2066737;28;20220;-74
2022/04/21 01:28:20;;;;;;;72.95;47.22;;;;;;;4.29;100.00;98635.31;2066641;28;20561;-73
2022/04/21 01:29:20;;;;;;;70.88;45.88;;;;;;;4.31;100.00;98644.53;2066151;28;20263;-73
2022/04/21 01:30:22;;;;;;;73.10;48.03;;;;;;;4.31;100.00;98636.59;2058068;28;20279;-73
2022/04/21 01:31:23;;;;;;;65.25;46.45;;;;;;;4.29;100.00;98628.16;2066934;28;20668;-73
2022/04/21 01:32:25;;;;;;;71.33;46.93;;;;;;;4.31;100.00;98630.53;2067275;28;20556;-73
2022/04/21 01:33:25;;;;;;;71.70;46.03;;;;;;;4.31;100.00;98626.03;2066520;28;20205;-73
2022/04/21 01:34:28;;;;;;;72.07;45.67;;;;;;;4.30;100.00;98627.09;2058624;28;20197;-73
2022/04/21 01:35:30;;;;;;;72.35;46.20;;;;;;;4.29;100.00;98630.81;2066677;28;20225;-73
2022/04/21 01:36:32;;;;;;;67.07;46.45;;;;;;;4.29;100.00;98630.03;2067003;28;20221;-73
2022/04/21 01:41:32;;;;;;;70.75;46.05;;;;;;;4.30;100.00;98635.03;2066769;28;20189;-73
2022/04/21 01:42:35;;;;;;;70.63;47.47;;;;;;;4.31;100.00;98627.91;2066489;28;20204;-73
2022/04/21 01:43:37;;;;;;;71.63;47.15;;;;;;;4.30;100.00;98632.38;2066640;28;20702;-73
2022/04/21 01:44:38;;;;;;;76.13;48.70;;;;;;;4.32;100.00;98635.56;2066502;28;20208;-73
2022/04/21 01:45:43;;;;;;;69.73;48.10;;;;;;;4.32;100.00;98634.75;2066179;28;20212;-74
2022/04/21 01:46:48;;;;;;;73.93;47.80;;;;;;;4.30;100.00;98635.03;2066778;28;20177;-73
2022/04/21 01:47:49;;;;;;;75.28;50.13;;;;;;;4.31;100.00;98631.31;2066128;28;20296;-73
2022/04/21 01:48:54;;;;;;;72.13;48.43;;;;;;;4.29;100.00;98636.09;2066784;28;20197;-73
2022/04/21 01:49:55;;;;;;;74.47;48.95;;;;;;;4.29;100.00;98636.09;2066466;28;20200;-73
2022/04/21 01:50:56;;;;;;;70.05;48.35;;;;;;;4.31;100.00;98630.53;2057833;28;20202;-73
2022/04/21 01:51:58;;;;;;;70.55;47.90;;;;;;;4.30;100.00;98637.66;2058458;28;20202;-73
2022/04/21 01:53:01;;;;;;;71.95;48.45;;;;;;;4.30;100.00;98628.97;2066867;28;20691;-73
2022/04/21 01:54:02;;;;;;;81.53;49.35;;;;;;;4.28;100.00;98629.22;2066383;28;20308;-73
2022/04/21 01:55:04;;;;;;;76.43;48.57;;;;;;;4.27;100.00;98619.72;2066759;28;20189;-73
2022/04/21 01:56:06;;;;;;;73.97;47.67;;;;;;;4.30;100.00;98621.03;2066443;28;20200;-73
2022/04/21 01:57:07;;;;;;;74.60;49.15;;;;;;;4.29;100.00;98620.25;2066743;28;20197;-73
2022/04/21 01:58:09;;;;;;;70.43;47.87;;;;;;;4.30;100.00;98623.69;2066014;28;20201;-73
2022/04/21 01:59:10;;;;;;;76.30;48.60;;;;;;;4.28;100.00;98617.88;2066488;28;20220;-74
2022/04/21 02:00:12;;;;;;;73.57;49.77;;;;;;;4.27;100.00;98616.28;2066332;28;20197;-73
2022/04/21 02:01:13;;;;;;;79.47;49.05;;;;;;;4.24;100.00;98615.75;2066652;28;20189;-73
2022/04/21 02:02:15;;;;;;;77.73;48.07;;;;;;;4.24;100.00;98614.97;2066044;28;20209;-73
2022/04/21 02:03:16;;;;;;;71.95;48.13;;;;;;;4.26;100.00;98615.50;2058362;28;20212;-74
2022/04/21 02:04:18;;;;;;;71.30;46.95;;;;;;;4.23;100.00;98606.25;2066485;28;20196;-73
2022/04/21 02:05:19;;;;;;;74.05;47.67;;;;;;;4.21;100.00;98607.56;2067067;28;20193;-74
2022/04/21 02:06:21;;;;;;;70.17;47.53;;;;;;;4.23;100.00;98616.00;2066785;28;20245;-73
2022/04/21 02:07:24;;;;;;;76.68;49.00;;;;;;;4.20;100.00;98611.28;2066985;28;20189;-73
2022/04/21 02:08:27;;;;;;;69.95;47.60;;;;;;;4.18;100.00;98623.94;2067004;28;20193;-74
2022/04/21 02:09:29;;;;;;;74.05;49.85;;;;;;;4.19;100.00;98620.25;2066403;28;20200;-73
2022/04/21 02:10:32;;;;;;;72.70;47.95;;;;;;;4.18;100.00;98621.31;2066324;28;20272;-73
2022/04/21 02:11:33;;;;;;;70.55;47.63;;;;;;;4.16;100.00;98616.28;2065986;28;20698;-73
2022/04/21 02:12:34;;;;;;;71.03;47.43;;;;;;;4.14;100.00;98620.25;2066930;28;20570;-73
2022/04/21 02:13:36;;;;;;;71.10;48.13;;;;;;;4.16;100.00;98621.56;2066371;28;20301;-73
2022/04/21 02:14:37;;;;;;;78.13;47.70;;;;;;;4.14;100.00;98622.88;2066409;28;20193;-73
2022/04/21 02:15:41;;;;;;;70.30;48.33;;;;;;;4.18;100.00;98629.22;2067153;28;20193;-73
2022/04/21 02:16:44;;;;;;;66.43;46.17;;;;;;;4.18;100.00;98629.22;2066971;28;20212;-73
2022/04/21 02:17:48;;;;;;;70.22;47.75;;;;;;;4.14;100.00;98622.88;2066235;28;20288;-73
2022/04/21 02:18:49;;;;;;;77.65;49.63;;;;;;;4.17;100.00;98627.63;2066259;28;20288;-73
2022/04/21 02:19:50;;;;;;;74.87;49.90;;;;;;;4.18;100.00;98634.50;2066451;28;20189;-73
2022/04/21 02:20:52;;;;;;;76.45;49.10;;;;;;;4.18;100.00;98630.03;2066245;28;20251;-73
2022/04/21 02:21:53;;;;;;;71.25;47.58;;;;;;;4.26;100.00;98626.06;2065784;28;20745;-74
2022/04/21 02:22:57;;;;;;;74.47;48.55;;;;;;;4.27;100.00;98632.13;2066512;28;20588;-73
2022/04/21 02:23:58;;;;;;;74.50;49.25;;;;;;;4.23;100.00;98622.09;2067027;28;20185;-73
2022/04/21 02:25:00;;;;;;;73.23;48.27;;;;;;;4.22;100.00;98630.28;2066881;28;20238;-73
2022/04/21 02:26:01;;;;;;;71.97;48.70;;;;;;;4.18;100.00;98622.09;2074323;28;20339;-74
2022/04/21 02:27:02;;;;;;;78.93;49.43;;;;;;;4.19;100.00;98621.03;2065850;28;20695;-73
2022/04/21 02:28:04;;;;;;;75.53;49.53;;;;;;;4.20;100.00;98627.91;2066262;28;20263;-73
2022/04/21 02:29:05;;;;;;;76.38;50.05;;;;;;;4.18;100.00;98618.69;2067014;28;20193;-73
2022/04/21 02:30:08;;;;;;;74.80;49.50;;;;;;;4.18;100.00;98624.75;2068406;28;20200;-73
2022/04/21 02:31:10;;;;;;;80.05;50.75;;;;;;;4.18;100.00;98619.47;2074988;28;20184;-73
2022/04/21 02:32:11;;;;;;;72.50;49.35;;;;;;;4.17;100.00;98622.34;2074931;28;20188;-73
2022/04/21 02:33:12;;;;;;;79.13;51.33;;;;;;;4.18;100.00;98624.75;2066119;28;20193;-73
2022/04/21 02:34:13;;;;;;;71.65;48.90;;;;;;;4.17;100.00;98623.16;2066210;28;20201;-73
2022/04/21 02:35:16;;;;;;;72.80;49.93;;;;;;;4.17;100.00;98627.63;2074896;28;20216;-73
2022/04/21 02:36:17;;;;;;;74.50;49.63;;;;;;;4.17;100.00;98620.53;2065671;28;20684;-73
2022/04/21 02:37:21;;;;;;;78.97;51.40;;;;;;;4.16;100.00;98620.75;2058097;28;20638;-73
2022/04/21 02:38:26;;;;;;;70.80;49.10;;;;;;;4.18;100.00;98623.94;2066630;28;20751;-73
2022/04/21 02:39:29;;;;;;;70.03;49.35;;;;;;;4.18;100.00;98629.22;2066337;28;20213;-73
2022/04/21 02:40:30;;;;;;;75.03;50.50;;;;;;;4.17;100.00;98623.16;2057633;28;20210;-73
2022/04/21 02:41:32;;;;;;;73.17;49.80;;;;;;;4.19;100.00;98620.25;2058008;28;20189;-73
2022/04/21 02:42:33;;;;;;;77.18;50.00;;;;;;;4.19;100.00;98628.97;2058288;28;20201;-73
2022/04/21 02:43:35;;;;;;;71.77;48.77;;;;;;;4.19;100.00;98628.19;2066370;28;20640;-73
2022/04/21 02:44:38;;;;;;;72.13;50.15;;;;;;;4.17;100.00;98623.16;2066008;28;20201;-73
2022/04/21 02:45:43;;;;;;;79.25;50.50;;;;;;;4.20;100.00;98629.75;2066363;28;20189;-73
2022/04/21 02:46:44;;;;;;;79.38;50.17;;;;;;;4.25;100.00;98635.00;2074749;28;20659;-73
2022/04/21 02:47:46;;;;;;;80.25;50.58;;;;;;;4.23;100.00;98630.00;2066064;28;20201;-73
2022/04/21 02:48:47;;;;;;;76.80;49.53;;;;;;;4.23;100.00;98637.13;2066226;28;20702;-73
2022/04/21 02:49:50;;;;;;;79.40;50.50;;;;;;;4.24;100.00;98638.72;2074811;28;20554;-73
2022/04/21 02:50:54;;;;;;;76.65;50.05;;;;;;;4.23;100.00;98629.22;2066023;28;20655;-73
2022/04/21 02:51:58;;;;;;;73.60;50.38;;;;;;;4.21;100.00;98623.41;2066429;28;20236;-73
2022/04/21 02:53:00;;;;;;;79.10;50.35;;;;;;;4.23;100.00;98621.28;2074750;28;20674;-74
2022/04/21 02:58:02;;;;;;;73.72;50.65;;;;;;;4.15;100.00;98601.50;2065954;28;20529;-73
2022/04/21 02:59:04;;;;;;;76.97;51.63;;;;;;;4.17;100.00;98614.41;2066425;28;20193;-73
2022/04/21 03:00:08;;;;;;;77.15;50.85;;;;;;;4.15;100.00;98613.91;2065247;28;20292;-73
2022/04/21 03:01:12;;;;;;;73.63;51.30;;;;;;;4.15;100.00;98624.47;2066492;28;20338;-73
2022/04/21 03:02:14;;;;;;;80.95;51.58;;;;;;;4.14;100.00;98621.03;2074658;28;20184;-73
2022/04/21 03:03:14;;;;;;;78.20;52.22;;;;;;;4.13;100.00;98626.59;2065655;28;20212;-73
2022/04/21 03:04:16;;;;;;;76.07;52.10;;;;;;;4.13;100.00;98618.66;2066109;28;20181;-74
2022/04/21 03:05:18;;;;;;;79.32;52.20;;;;;;;4.11;100.00;98615.50;2074681;28;20196;-73
2022/04/21 03:06:19;;;;;;;82.38;51.92;;;;;;;4.12;100.00;98617.09;2073991;28;20220;-73
2022/04/21 03:07:23;;;;;;;78.50;52.38;;;;;;;4.11;100.00;98612.88;2074622;28;20197;-73
2022/04/21 03:08:24;;;;;;;80.78;52.22;;;;;;;4.11;100.00;98612.88;2065918;28;20247;-74
2022/04/21 03:09:27;;;;;;;78.27;52.27;;;;;;;4.07;100.00;98606.50;2057064;28;20198;-74
2022/04/21 03:10:28;;;;;;;76.78;51.65;;;;;;;4.09;100.00;98609.69;2066062;28;20656;-74
2022/04/21 03:11:29;;;;;;;81.50;52.42;;;;;;;4.09;100.00;98607.06;2065765;28;20209;-73
2022/04/21 03:12:31;;;;;;;81.53;52.53;;;;;;;4.07;100.00;98606.50;2065961;28;20193;-73
2022/04/21 03:13:33;;;;;;;79.30;52.15;;;;;;;4.08;100.00;98616.00;2074657;28;20189;-73
2022/04/21 03:14:36;;;;;;;85.90;53.22;;;;;;;4.06;100.00;98616.28;2074532;28;20259;-73
2022/04/21 03:15:37;;;;;;;79.93;54.20;;;;;;;4.07;100.00;98612.59;2065818;28;20197;-73
2022/04/21 03:16:38;;;;;;;81.37;51.97;;;;;;;4.07;100.00;98611.78;2065952;28;20268;-73
2022/04/21 03:17:40;;;;;;;77.43;50.45;;;;;;;4.06;100.00;98610.22;2074692;28;20200;-73
2022/04/21 03:18:41;;;;;;;75.65;51.30;;;;;;;4.05;100.00;98598.06;2074595;28;20200;-73
2022/04/21 03:19:44;;;;;;;81.70;53.13;;;;;;;4.05;100.00;98606.78;2065760;28;20197;-73
2022/04/21 03:25:00;;;;;;;79.00;51.63;;;;;;;4.00;100.00;98605.97;2053567;28;20584;-73
2022/04/21 03:26:01;;;;;;;71.35;49.22;;;;;;;4.00;100.00;98600.69;2066397;28;20189;-73
2022/04/21 03:27:04;;;;;;;80.50;51.10;;;;;;;3.97;100.00;98602.81;2064898;28;20268;-73
2022/04/21 03:28:06;;;;;;;76.45;50.22;;;;;;;3.97;100.00;98596.75;2057900;28;20197;-73
2022/04/21 03:29:08;;;;;;;79.32;51.97;;;;;;;3.96;100.00;98595.97;2066291;28;20598;-73
2022/04/21 03:30:11;;;;;;;78.60;51.10;;;;;;;3.98;100.00;98599.13;2065101;28;20213;-73
2022/04/21 03:31:12;;;;;;;81.88;52.08;;;;;;;3.98;100.00;98598.31;2057862;28;20274;-73
2022/04/21 03:32:14;;;;;;;82.37;51.83;;;;;;;3.96;100.00;98603.88;2065721;28;20205;-73
2022/04/21 03:33:16;;;;;;;79.32;52.28;;;;;;;3.95;100.00;98597.03;2074419;28;20189;-73
2022/04/21 03:34:20;;;;;;;81.70;52.22;;;;;;;3.94;100.00;98600.72;2074403;28;20198;-73
2022/04/21 03:35:22;;;;;;;73.20;49.47;;;;;;;3.96;100.00;98595.97;2065641;28;20224;-73
2022/04/21 03:36:23;;;;;;;80.57;50.47;;;;;;;3.97;100.00;98604.66;2064430;28;20283;-73
2022/04/21 03:37:24;;;;;;;80.93;51.10;;;;;;;3.95;100.00;98597.03;2057482;28;20205;-73
2022/04/21 03:38:26;;;;;;;76.87;50.30;;;;;;;3.96;100.00;98605.72;2065747;28;20193;-73
2022/04/21 03:39:26;;;;;;;80.70;50.03;;;;;;;3.95;100.00;98599.66;2065002;28;20688;-73
2022/04/21 03:40:31;;;;;;;78.53;50.93;;;;;;;3.94;100.00;98605.22;2057199;28;20570;-73
2022/04/21 03:41:34;;;;;;;74.75;50.40;;;;;;;3.95;100.00;98607.56;2066013;28;20224;-73
2022/04/21 03:42:39;;;;;;;76.65;50.28;;;;;;;3.96;100.00;98608.38;2065553;28;20621;-73
2022/04/21 03:43:40;;;;;;;75.57;49.33;;;;;;;3.95;100.00;98619.97;2066143;28;20200;-73
2022/04/21 03:44:42;;;;;;;74.65;51.25;;;;;;;3.96;100.00;98621.56;2065621;28;20189;-73
2022/04/21 03:45:42;;;;;;;78.60;50.65;;;;;;;3.95;100.00;98606.78;2065910;28;20215;-73
2022/04/21 03:46:44;;;;;;;76.40;50.93;;;;;;;3.94;100.00;98613.91;2074294;28;20196;-73
2022/04/21 03:47:47;;;;;;;82.75;52.15;;;;;;;3.96;100.00;98616.28;2074337;28;20192;-73
2022/04/21 03:48:48;;;;;;;84.05;53.40;;;;;;;3.95;100.00;98609.44;2074324;28;20655;-73
2022/04/21 03:49:52;;;;;;;82.95;53.22;;;;;;;3.96;100.00;98603.09;2065528;28;20587;-73
2022/04/21 03:50:54;;;;;;;84.75;52.72;;;;;;;3.95;100.00;98610.22;2065641;28;20193;-73
2022/04/21 03:51:56;;;;;;;80.32;51.50;;;;;;;3.98;100.00;98619.44;2074271;28;20192;-73
2022/04/21 03:52:57;;;;;;;74.20;50.05;;;;;;;3.98;100.00;98614.97;2074401;28;20196;-73
2022/04/21 03:53:59;;;;;;;78.77;50.83;;;;;;;3.98;100.00;98620.22;2064820;28;20664;-73
2022/04/21 03:55:00;;;;;;;84.28;53.15;;;;;;;4.00;100.00;98617.34;2065831;28;20193;-73
2022/04/21 03:56:07;;;;;;;77.13;50.63;;;;;;;3.98;100.00;98624.72;2074258;28;20192;-73
2022/04/21 03:57:09;;;;;;;73.57;51.47;;;;;;;4.01;100.00;98618.94;2065326;28;20208;-73
2022/04/21 03:58:09;;;;;;;83.68;52.38;;;;;;;4.00;100.00;98616.53;2057439;28;20724;-73
2022/04/21 03:59:11;;;;;;;80.43;51.33;;;;;;;4.00;100.00;98622.63;2065571;28;20554;-73
2022/04/21 04:00:13;;;;;;;75.95;52.25;;;;;;;4.02;100.00;98619.72;2065479;28;20208;-73
2022/04/21 04:01:14;;;;;;;79.15;53.30;;;;;;;4.02;100.00;98614.44;2057594;28;20205;-73
2022/04/21 04:02:17;;;;;;;80.47;52.40;;;;;;;4.04;100.00;98620.25;2057413;28;20744;-73
2022/04/21 04:03:20;;;;;;;82.40;52.55;;;;;;;4.06;100.00;98626.06;2066069;28;20192;-73
2022/04/21 04:04:22;;;;;;;81.68;53.80;;;;;;;4.04;100.00;98617.59;2074220;28;20216;-73
2022/04/21 04:05:23;;;;;;;84.20;52.88;;;;;;;4.01;100.00;98618.16;2074235;28;20208;-73
2022/04/21 04:11:45;;;;;;;76.28;51.53;;;;;;;4.03;100.00;98626.59;2065365;28;20226;-73
2022/04/21 04:12:46;;;;;;;78.65;52.10;;;;;;;4.01;100.00;98624.22;2057456;28;20561;-73
2022/04/21 04:13:47;;;;;;;74.25;50.92;;;;;;;3.98;100.00;98609.69;2065529;28;20200;-74
2022/04/21 04:14:49;;;;;;;82.37;51.33;;;;;;;4.03;100.00;98626.59;2065368;28;20233;-73
2022/04/21 04:15:51;;;;;;;76.05;49.33;;;;;;;4.03;100.00;98616.03;2065503;28;20203;-73
2022/04/21 04:16:54;;;;;;;82.43;50.95;;;;;;;4.04;100.00;98622.88;2065370;28;20201;-73
2022/04/21 04:17:58;;;;;;;78.50;52.22;;;;;;;4.02;100.00;98611.81;2058100;28;20201;-73
2022/04/21 04:19:00;;;;;;;79.20;52.23;;;;;;;4.04;100.00;98622.88;2057329;28;20225;-73
2022/04/21 04:20:01;;;;;;;82.38;53.33;;;;;;;4.02;100.00;98617.09;2065447;28;20189;-74
2022/04/21 04:21:03;;;;;;;82.03;52.67;;;;;;;4.01;100.00;98618.16;2073521;28;20181;-73
2022/04/21 04:22:04;;;;;;;76.25;50.70;;;;;;;4.03;100.00;98616.03;2074448;28;20172;-73
2022/04/21 04:23:07;;;;;;;79.50;50.87;;;;;;;4.05;100.00;98625.25;2065289;28;20722;-73
2022/04/21 04:24:08;;;;;;;82.53;52.75;;;;;;;4.04;100.00;98623.69;2057117;28;20263;-73
2022/04/21 04:25:12;;;;;;;81.40;51.95;;;;;;;4.06;100.00;98631.31;2065588;28;20207;-73
2022/04/21 04:26:13;;;;;;;74.65;50.28;;;;;;;4.04;100.00;98622.88;2074155;28;20192;-73
2022/04/21 04:27:16;;;;;;;77.03;50.53;;;;;;;4.06;100.00;98616.28;2073991;28;20193;-73
2022/04/21 04:28:17;;;;;;;73.57;50.00;;;;;;;4.07;100.00;98623.13;2065259;28;20204;-73
2022/04/21 04:29:22;;;;;;;71.60;49.20;;;;;;;4.08;100.00;98622.09;2057405;28;20236;-73
2022/04/21 04:30:24;;;;;;;78.00;50.20;;;;;;;4.06;100.00;98621.56;2057151;28;20241;-73
2022/04/21 04:31:28;;;;;;;78.40;51.80;;;;;;;4.11;100.00;98623.41;2065473;28;20186;-73
2022/04/21 04:32:30;;;;;;;76.45;51.00;;;;;;;4.11;100.00;98621.56;2065082;28;20291;-73
2022/04/21 04:33:32;;;;;;;74.38;51.38;;;;;;;4.12;100.00;98622.38;2065266;28;20197;-73
2022/04/21 04:34:33;;;;;;;73.82;50.00;;;;;;;4.13;100.00;98624.72;2056858;28;20656;-73
2022/04/21 04:35:35;;;;;;;76.33;51.30;;;;;;;4.15;100.00;98630.53;2065370;28;20654;-73
2022/04/21 04:36:36;;;;;;;72.32;49.17;;;;;;;4.14;100.00;98623.69;2065650;28;20229;-73
2022/04/21 04:37:40;;;;;;;67.57;47.87;;;;;;;4.16;100.00;98626.03;2065897;28;20200;-73
2022/04/21 04:38:41;;;;;;;73.05;49.53;;;;;;;4.17;100.00;98623.16;2065876;28;20224;-73
2022/04/21 04:39:43;;;;;;;74.93;49.27;;;;;;;4.19;100.00;98625.53;2065543;28;20193;-73
2022/04/21 04:40:44;;;;;;;69.57;49.42;;;;;;;4.20;100.00;98624.47;2065386;28;20196;-73
2022/04/21 04:43:22;;;;;;;77.78;52.03;;;;;;;4.21;100.00;98624.22;2057158;28;20213;-73
2022/04/21 04:44:23;;;;;;;72.93;49.47;;;;;;;4.22;100.00;98625.00;2056892;28;20652;-73
2022/04/21 04:46:47;;;;;;;74.55;48.95;;;;;;;4.26;100.00;98626.06;2051644;28;20189;-73
2022/04/21 04:47:47;;;;;;;72.60;48.13;;;;;;;4.26;100.00;98626.06;2056990;28;20740;-73
2022/04/21 04:48:48;;;;;;;72.53;49.00;;;;;;;4.30;100.00;98627.09;2052405;28;20602;-73
2022/04/21 04:49:50;;;;;;;75.60;49.33;;;;;;;4.33;100.00;98625.78;2056873;28;20792;-73
2022/04/21 04:50:52;;;;;;;72.63;48.00;;;;;;;4.32;100.00;98622.34;2056915;28;20715;-73
2022/04/21 04:51:56;;;;;;;72.53;48.65;;;;;;;4.34;100.00;98630.00;2064906;28;20766;-73
2022/04/21 04:52:58;;;;;;;73.57;48.15;;;;;;;4.35;100.00;98624.47;2065178;28;20216;-73
2022/04/21 04:54:01;;;;;;;74.82;50.72;;;;;;;4.36;100.00;98631.34;2065331;28;20189;-73
2022/04/21 04:55:01;;;;;;;66.97;49.00;;;;;;;4.37;100.00;98621.56;2065757;28;20660;-73
2022/04/21 04:56:03;;;;;;;72.13;49.20;;;;;;;4.37;100.00;98627.63;2065834;28;20587;-73
2022/04/21 04:57:05;;;;;;;67.15;49.13;;;;;;;4.39;100.00;98625.50;2065759;28;20200;-73
2022/04/21 04:58:06;;;;;;;74.60;50.05;;;;;;;4.41;100.00;98627.88;2064705;28;20212;-73
2022/04/21 04:59:10;;;;;;;73.32;50.55;;;;;;;4.43;100.00;98623.13;2065532;28;20280;-73
2022/04/21 05:00:13;;;;;;;71.22;50.15;;;;;;;4.43;100.00;98621.28;2065110;28;20232;-73
2022/04/21 05:01:19;;;;;;;74.60;49.45;;;;;;;4.45;100.00;98624.47;2057461;28;20225;-73
2022/04/21 05:02:20;;;;;;;75.38;50.95;;;;;;;4.50;100.00;98621.78;2057674;28;20822;-73
2022/04/21 05:03:22;;;;;;;78.97;49.77;;;;;;;4.50;100.00;98626.28;2065314;28;20613;-73
2022/04/21 05:04:24;;;;;;;78.18;50.92;;;;;;;4.53;100.00;98618.63;2065921;28;20526;-74
2022/04/21 05:05:28;;;;;;;78.15;51.67;;;;;;;4.56;100.00;98608.59;2065790;28;20268;-73
2022/04/21 05:06:29;;;;;;;83.43;51.53;;;;;;;4.62;100.00;98624.16;2064426;28;20220;-73
2022/04/21 05:07:33;;;;;;;78.05;52.97;;;;;;;4.65;100.00;98617.53;2065319;28;20714;-74
2022/04/21 05:08:34;;;;;;;74.20;51.90;;;;;;;4.66;100.00;98625.19;2064724;28;20220;-73